Time;durP1;ratioP1;P1;durP2;ratioP2;P2;SDS_P1;SDS_P2;PMS_P1;PMS_P2;Temp;Humidity;BMP_temperature;BMP_pressure;BME280_temperature;BME280_humidity;BME280_pressure;Samples;Min_cycle;Max_cycle;Signal;HPM_P1;HPM_P2
2021/07/10 00:01:45;;;;;;;;;8.67;8.00;;;;;;;;5055073;28;45471;-78
2021/07/10 00:04:10;;;;;;;;;10.00;9.00;;;;;;;;5052856;28;45393;-78
2021/07/10 00:06:36;;;;;;;;;7.00;7.00;;;;;;;;5057554;28;45482;-77
2021/07/10 00:09:01;;;;;;;;;8.00;7.00;;;;;;;;5058117;28;45537;-80
2021/07/10 00:11:26;;;;;;;;;10.25;9.00;;;;;;;;5063668;28;45501;-78
2021/07/10 00:13:52;;;;;;;;;8.67;7.00;;;;;;;;5062239;28;45487;-79
2021/07/10 00:16:17;;;;;;;;;9.33;9.00;;;;;;;;5055443;28;45291;-79
2021/07/10 00:18:42;;;;;;;;;7.00;7.00;;;;;;;;5052520;28;45600;-78
2021/07/10 00:21:07;;;;;;;;;9.00;9.00;;;;;;;;5052473;28;45441;-78
2021/07/10 00:23:32;;;;;;;;;10.00;9.00;;;;;;;;5059623;28;45473;-80
2021/07/10 00:25:58;;;;;;;;;8.25;7.00;;;;;;;;5053770;28;45580;-79
2021/07/10 00:28:23;;;;;;;;;9.75;8.25;;;;;;;;5062858;28;45329;-78
2021/07/10 00:30:48;;;;;;;;;7.00;7.00;;;;;;;;5053098;28;47351;-78
2021/07/10 00:33:13;;;;;;;;;6.67;6.67;;;;;;;;5053067;28;45402;-78
2021/07/10 00:35:39;;;;;;;;;10.33;8.33;;;;;;;;5055688;28;45469;-78
2021/07/10 00:38:05;;;;;;;;;6.75;6.75;;;;;;;;5057596;28;45556;-79
2021/07/10 00:40:30;;;;;;;;;11.75;7.00;;;;;;;;5053606;28;45603;-78
2021/07/10 00:42:56;;;;;;;;;8.00;8.00;;;;;;;;5048860;28;46057;-78
2021/07/10 00:45:21;;;;;;;;;8.33;8.33;;;;;;;;5053666;28;45410;-78
2021/07/10 00:47:46;;;;;;;;;7.67;6.33;;;;;;;;5053119;28;45437;-80
2021/07/10 00:50:19;;;;;;;;;10.75;7.25;;;;;;;;5052615;28;48197;-78
2021/07/10 00:52:45;;;;;;;;;9.00;9.00;;;;;;;;5054362;28;45905;-78
2021/07/10 00:55:12;;;;;;;;;6.75;6.75;;;;;;;;5060093;28;45426;-78
2021/07/10 00:57:37;;;;;;;;;8.00;8.00;;;;;;;;5052272;28;45493;-78
2021/07/10 01:00:07;;;;;;;;;8.25;8.25;;;;;;;;5053416;28;45537;-78
2021/07/10 01:02:32;;;;;;;;;12.00;7.00;;;;;;;;5051851;28;45417;-78
2021/07/10 01:04:58;;;;;;;;;8.00;8.00;;;;;;;;5055070;28;45423;-78
2021/07/10 01:07:23;;;;;;;;;6.67;6.67;;;;;;;;5055404;28;45481;-78
2021/07/10 01:09:48;;;;;;;;;9.33;8.00;;;;;;;;5055981;28;47088;-78
2021/07/10 01:12:13;;;;;;;;;11.00;7.00;;;;;;;;5055249;28;45361;-78
2021/07/10 01:14:39;;;;;;;;;6.33;6.33;;;;;;;;5055049;28;45630;-78
2021/07/10 01:17:08;;;;;;;;;10.75;7.75;;;;;;;;5050366;28;45684;-79
2021/07/10 01:19:33;;;;;;;;;6.25;6.25;;;;;;;;5054279;28;45460;-78
2021/07/10 01:21:58;;;;;;;;;7.33;7.33;;;;;;;;5052596;28;45494;-79
2021/07/10 01:24:24;;;;;;;;;8.00;7.33;;;;;;;;5052382;28;45383;-80
2021/07/10 01:26:50;;;;;;;;;8.75;7.00;;;;;;;;5046100;27;45404;-79
2021/07/10 01:29:16;;;;;;;;;9.00;7.50;;;;;;;;5060357;28;45920;-78
2021/07/10 01:31:42;;;;;;;;;6.00;6.00;;;;;;;;5053886;28;45452;-78
2021/07/10 01:34:07;;;;;;;;;9.25;9.00;;;;;;;;5054125;28;45280;-78
2021/07/10 01:36:32;;;;;;;;;6.33;6.33;;;;;;;;5051244;28;45354;-78
2021/07/10 01:38:57;;;;;;;;;8.25;7.75;;;;;;;;5051476;28;46105;-78
2021/07/10 01:41:23;;;;;;;;;6.67;6.67;;;;;;;;5054160;28;45487;-78
2021/07/10 01:43:48;;;;;;;;;8.00;6.33;;;;;;;;5052581;28;45433;-78
2021/07/10 01:46:13;;;;;;;;;11.00;7.67;;;;;;;;5052815;28;45464;-78
2021/07/10 01:48:38;;;;;;;;;10.67;9.33;;;;;;;;5052433;28;46051;-78
2021/07/10 01:51:04;;;;;;;;;7.00;7.00;;;;;;;;5052531;28;45465;-78
2021/07/10 01:53:29;;;;;;;;;7.00;7.00;;;;;;;;5060544;28;45292;-79
2021/07/10 01:55:54;;;;;;;;;7.00;6.00;;;;;;;;5064300;28;45404;-79
2021/07/10 01:58:19;;;;;;;;;7.33;7.00;;;;;;;;5051508;28;46254;-79
2021/07/10 02:00:45;;;;;;;;;8.00;8.00;;;;;;;;5053736;28;45423;-77
2021/07/10 02:03:14;;;;;;;;;12.50;8.75;;;;;;;;5051720;28;45453;-79
2021/07/10 02:05:40;;;;;;;;;9.00;8.00;;;;;;;;5061144;28;45933;-78
2021/07/10 02:08:05;;;;;;;;;9.75;8.00;;;;;;;;5056029;28;46078;-78
2021/07/10 02:10:32;;;;;;;;;8.50;8.50;;;;;;;;5052704;28;45452;-77
2021/07/10 02:13:00;;;;;;;;;13.50;8.50;;;;;;;;5057580;28;45541;-78
2021/07/10 02:15:25;;;;;;;;;5.00;5.00;;;;;;;;5050185;28;45604;-78
2021/07/10 02:17:51;;;;;;;;;10.50;8.50;;;;;;;;5051117;28;45836;-79
2021/07/10 02:20:17;;;;;;;;;10.25;9.00;;;;;;;;5058357;28;45509;-78
2021/07/10 02:22:43;;;;;;;;;9.25;9.25;;;;;;;;5054006;28;45490;-78
2021/07/10 02:25:09;;;;;;;;;7.75;7.00;;;;;;;;5057339;28;45485;-79
2021/07/10 02:27:34;;;;;;;;;10.00;8.50;;;;;;;;5054478;27;46322;-79
2021/07/10 02:30:00;;;;;;;;;9.67;9.00;;;;;;;;5051408;28;45370;-80
2021/07/10 02:32:25;;;;;;;;;9.67;8.00;;;;;;;;5051378;28;45434;-78
2021/07/10 02:34:50;;;;;;;;;8.67;8.00;;;;;;;;5063276;28;45647;-79
2021/07/10 02:37:15;;;;;;;;;8.67;8.67;;;;;;;;5047618;28;46396;-78
2021/07/10 02:39:40;;;;;;;;;11.25;8.25;;;;;;;;5053666;28;45456;-78
2021/07/10 02:42:06;;;;;;;;;13.33;8.00;;;;;;;;5056657;28;46622;-78
2021/07/10 02:44:31;;;;;;;;;12.33;8.33;;;;;;;;5057601;28;45338;-78
2021/07/10 02:46:56;;;;;;;;;10.00;8.67;;;;;;;;5052340;28;45660;-78
2021/07/10 02:49:22;;;;;;;;;10.00;8.00;;;;;;;;5053169;28;45356;-79
2021/07/10 02:51:47;;;;;;;;;8.75;7.75;;;;;;;;5053983;28;45552;-78
2021/07/10 02:54:13;;;;;;;;;9.25;9.25;;;;;;;;5052081;28;45415;-78
2021/07/10 02:56:38;;;;;;;;;8.25;8.00;;;;;;;;5055381;28;45984;-79
2021/07/10 02:59:04;;;;;;;;;10.25;7.25;;;;;;;;5049542;28;45348;-79
2021/07/10 03:01:29;;;;;;;;;10.50;8.50;;;;;;;;5061895;28;45465;-77
2021/07/10 03:03:54;;;;;;;;;13.25;9.75;;;;;;;;5049965;28;45639;-80
2021/07/10 03:06:19;;;;;;;;;8.00;8.00;;;;;;;;5049350;28;46087;-78
2021/07/10 03:08:45;;;;;;;;;8.00;8.00;;;;;;;;5050983;28;45390;-78
2021/07/10 03:11:11;;;;;;;;;8.75;8.75;;;;;;;;5054483;28;45474;-78
2021/07/10 03:13:36;;;;;;;;;10.00;9.50;;;;;;;;5053402;28;45592;-78
2021/07/10 03:16:02;;;;;;;;;8.67;8.00;;;;;;;;5051113;28;46134;-78
2021/07/10 03:18:27;;;;;;;;;9.75;7.75;;;;;;;;5049808;28;45399;-79
2021/07/10 03:20:52;;;;;;;;;10.67;8.33;;;;;;;;5062016;28;45641;-78
2021/07/10 03:23:18;;;;;;;;;7.00;7.00;;;;;;;;5053416;28;45428;-78
2021/07/10 03:25:44;;;;;;;;;8.33;8.33;;;;;;;;5060933;28;46283;-77
2021/07/10 03:28:09;;;;;;;;;11.50;9.50;;;;;;;;5052484;28;45785;-77
2021/07/10 03:30:34;;;;;;;;;7.50;7.50;;;;;;;;5050804;28;45802;-78
2021/07/10 03:32:59;;;;;;;;;8.67;8.67;;;;;;;;5049361;28;45395;-80
2021/07/10 03:35:25;;;;;;;;;8.00;8.00;;;;;;;;5059675;28;46302;-78
2021/07/10 03:37:51;;;;;;;;;8.25;8.25;;;;;;;;5053281;28;45631;-78
2021/07/10 03:40:23;;;;;;;;;16.00;9.25;;;;;;;;5057813;28;45421;-78
2021/07/10 03:42:49;;;;;;;;;7.50;7.50;;;;;;;;5053274;28;45618;-78
2021/07/10 03:45:14;;;;;;;;;13.50;9.25;;;;;;;;5073538;27;47126;-79
2021/07/10 03:47:40;;;;;;;;;8.25;7.00;;;;;;;;5058790;28;45485;-77
2021/07/10 03:50:06;;;;;;;;;8.50;8.25;;;;;;;;5050264;28;45600;-78
2021/07/10 03:52:31;;;;;;;;;10.25;7.75;;;;;;;;5060962;28;45307;-78
2021/07/10 03:54:57;;;;;;;;;10.75;9.75;;;;;;;;5054190;28;48127;-78
2021/07/10 03:57:22;;;;;;;;;9.67;8.00;;;;;;;;5060603;28;45347;-77
2021/07/10 03:59:47;;;;;;;;;10.33;9.00;;;;;;;;5052319;28;45529;-78
2021/07/10 04:02:12;;;;;;;;;9.00;7.00;;;;;;;;5057659;28;45320;-77
2021/07/10 04:04:38;;;;;;;;;8.50;7.50;;;;;;;;5063388;28;45302;-78
2021/07/10 04:07:03;;;;;;;;;8.00;7.33;;;;;;;;5059496;28;45406;-77
2021/07/10 04:09:28;;;;;;;;;8.25;8.25;;;;;;;;5053153;27;45410;-78
2021/07/10 04:11:54;;;;;;;;;11.00;9.00;;;;;;;;5054095;28;45415;-78
2021/07/10 04:14:19;;;;;;;;;7.75;7.75;;;;;;;;5058946;28;46036;-78
2021/07/10 04:16:44;;;;;;;;;8.00;7.33;;;;;;;;5063920;28;45423;-78
2021/07/10 04:19:09;;;;;;;;;7.67;7.67;;;;;;;;5052378;28;45438;-78
2021/07/10 04:21:34;;;;;;;;;10.25;7.25;;;;;;;;5043266;28;45465;-78
2021/07/10 04:24:00;;;;;;;;;8.00;7.33;;;;;;;;5045375;28;45444;-77
2021/07/10 04:26:25;;;;;;;;;11.00;8.00;;;;;;;;5050437;28;45504;-76
2021/07/10 04:28:50;;;;;;;;;8.00;7.50;;;;;;;;5049498;28;45818;-77
2021/07/10 04:31:15;;;;;;;;;8.67;7.00;;;;;;;;5045816;28;45500;-77
2021/07/10 04:33:41;;;;;;;;;9.25;7.25;;;;;;;;5046905;28;46259;-78
2021/07/10 04:36:06;;;;;;;;;9.00;9.00;;;;;;;;5048720;28;45565;-78
2021/07/10 04:38:31;;;;;;;;;7.50;6.75;;;;;;;;5049970;28;45538;-77
2021/07/10 04:40:57;;;;;;;;;9.50;7.50;;;;;;;;5043966;28;45562;-77
2021/07/10 04:43:22;;;;;;;;;9.50;8.00;;;;;;;;5045863;28;46147;-77
2021/07/10 04:45:47;;;;;;;;;9.00;7.50;;;;;;;;5044757;28;45591;-78
2021/07/10 04:48:13;;;;;;;;;11.67;8.67;;;;;;;;5042320;28;45269;-79
2021/07/10 04:50:38;;;;;;;;;9.67;9.33;;;;;;;;5046446;28;45453;-78
2021/07/10 04:53:03;;;;;;;;;5.75;5.75;;;;;;;;5048191;28;45472;-77
2021/07/10 04:55:28;;;;;;;;;7.33;6.67;;;;;;;;5048173;28;45625;-78
2021/07/10 04:57:54;;;;;;;;;6.00;6.00;;;;;;;;5045874;28;45515;-78
2021/07/10 05:00:19;;;;;;;;;7.67;6.33;;;;;;;;5047030;28;45481;-79
2021/07/10 05:02:45;;;;;;;;;8.75;8.00;;;;;;;;5045262;28;45889;-78
2021/07/10 05:05:11;;;;;;;;;5.33;5.00;;;;;;;;5048758;28;45577;-81
2021/07/10 05:07:36;;;;;;;;;7.50;5.75;;;;;;;;5052046;28;45559;-81
2021/07/10 05:10:01;;;;;;;;;9.67;7.00;;;;;;;;5054241;28;45490;-78
2021/07/10 05:12:27;;;;;;;;;6.25;6.25;;;;;;;;5050757;28;47247;-78
2021/07/10 05:14:52;;;;;;;;;7.25;6.00;;;;;;;;5051810;28;45586;-78
2021/07/10 05:17:19;;;;;;;;;10.50;7.25;;;;;;;;5047843;28;45979;-77
2021/07/10 05:19:45;;;;;;;;;5.50;5.50;;;;;;;;5046174;28;45448;-78
2021/07/10 05:22:11;;;;;;;;;8.00;6.25;;;;;;;;5043858;28;45470;-78
2021/07/10 05:24:36;;;;;;;;;7.25;6.00;;;;;;;;5043556;28;45497;-78
2021/07/10 05:27:02;;;;;;;;;6.67;6.00;;;;;;;;5039792;28;45526;-78
2021/07/10 05:29:28;;;;;;;;;7.00;6.25;;;;;;;;5036636;28;45304;-79
2021/07/10 05:31:53;;;;;;;;;6.00;5.00;;;;;;;;5039420;28;46041;-77
2021/07/10 05:34:18;;;;;;;;;7.00;6.00;;;;;;;;5045096;28;46658;-77
2021/07/10 05:36:43;;;;;;;;;8.00;6.00;;;;;;;;5053827;28;45489;-78
2021/07/10 05:39:09;;;;;;;;;4.00;4.00;;;;;;;;5052120;27;45578;-78
2021/07/10 05:41:34;;;;;;;;;9.50;5.50;;;;;;;;5051241;28;45478;-78
2021/07/10 05:43:59;;;;;;;;;4.67;4.67;;;;;;;;5051220;28;45455;-78
2021/07/10 05:46:25;;;;;;;;;6.33;6.33;;;;;;;;5055206;28;45354;-78
2021/07/10 05:48:50;;;;;;;;;6.00;5.00;;;;;;;;5051652;28;45508;-78
2021/07/10 05:51:15;;;;;;;;;6.33;6.33;;;;;;;;5050919;28;45457;-77
2021/07/10 05:53:40;;;;;;;;;4.00;4.00;;;;;;;;5050436;28;46032;-78
2021/07/10 05:56:06;;;;;;;;;6.33;6.00;;;;;;;;5051124;28;45452;-80
2021/07/10 05:58:31;;;;;;;;;7.00;5.33;;;;;;;;5053351;28;45421;-79
2021/07/10 06:00:56;;;;;;;;;5.67;5.67;;;;;;;;5051077;28;46856;-78
2021/07/10 06:03:21;;;;;;;;;4.00;4.00;;;;;;;;5049933;28;45523;-78
2021/07/10 06:05:46;;;;;;;;;5.33;5.00;;;;;;;;5052759;28;46721;-78
2021/07/10 06:08:12;;;;;;;;;7.00;5.00;;;;;;;;5052160;28;45665;-78
2021/07/10 06:10:37;;;;;;;;;5.00;5.00;;;;;;;;5055113;28;45537;-78
2021/07/10 06:13:03;;;;;;;;;6.25;4.75;;;;;;;;5053225;28;45726;-78
2021/07/10 06:15:28;;;;;;;;;5.00;5.00;;;;;;;;5051448;28;45554;-78
2021/07/10 06:17:53;;;;;;;;;5.75;3.50;;;;;;;;5050548;27;45423;-78
2021/07/10 06:20:21;;;;;;;;;8.00;5.00;;;;;;;;5050355;28;45417;-78
2021/07/10 06:22:48;;;;;;;;;3.75;3.75;;;;;;;;5047305;28;45382;-77
2021/07/10 06:25:14;;;;;;;;;4.00;4.00;;;;;;;;5053552;28;45291;-77
2021/07/10 06:27:40;;;;;;;;;5.00;5.00;;;;;;;;5052417;28;45507;-79
2021/07/10 06:30:09;;;;;;;;;6.25;3.00;;;;;;;;5053795;27;45479;-78
2021/07/10 06:32:34;;;;;;;;;5.00;3.50;;;;;;;;5055770;28;45384;-77
2021/07/10 06:34:59;;;;;;;;;4.00;4.00;;;;;;;;5063098;28;45418;-80
2021/07/10 06:37:24;;;;;;;;;4.33;4.00;;;;;;;;5061149;28;45472;-79
2021/07/10 06:39:50;;;;;;;;;5.00;5.00;;;;;;;;5058070;28;45575;-78
2021/07/10 06:42:16;;;;;;;;;6.67;3.67;;;;;;;;5050888;28;45657;-77
2021/07/10 06:44:42;;;;;;;;;4.00;2.00;;;;;;;;5054825;28;45398;-78
2021/07/10 06:47:07;;;;;;;;;5.00;4.33;;;;;;;;5062641;28;45515;-77
2021/07/10 06:49:32;;;;;;;;;3.00;3.00;;;;;;;;5053809;28;45472;-78
2021/07/10 06:51:57;;;;;;;;;5.33;4.33;;;;;;;;5050725;28;45571;-78
2021/07/10 06:54:22;;;;;;;;;4.00;4.00;;;;;;;;5050137;28;45526;-78
2021/07/10 06:56:48;;;;;;;;;5.00;2.75;;;;;;;;5061056;28;45620;-79
2021/07/10 06:59:13;;;;;;;;;6.00;4.00;;;;;;;;5051013;28;45346;-78
2021/07/10 07:01:38;;;;;;;;;5.00;3.67;;;;;;;;5053344;28;45445;-78
2021/07/10 07:04:04;;;;;;;;;3.25;3.25;;;;;;;;5056869;28;45439;-78
2021/07/10 07:06:30;;;;;;;;;3.75;3.00;;;;;;;;5057138;27;45334;-78
2021/07/10 07:08:56;;;;;;;;;4.25;2.75;;;;;;;;5060676;27;45325;-78
2021/07/10 07:11:21;;;;;;;;;3.75;3.75;;;;;;;;5058497;28;45419;-78
2021/07/10 07:13:46;;;;;;;;;3.00;3.00;;;;;;;;5051776;28;45349;-78
2021/07/10 07:16:11;;;;;;;;;3.00;3.00;;;;;;;;5052606;28;46021;-77
2021/07/10 07:18:37;;;;;;;;;4.67;3.00;;;;;;;;5051309;28;45453;-77
2021/07/10 07:21:02;;;;;;;;;2.67;1.67;;;;;;;;5058453;28;45457;-77
2021/07/10 07:23:27;;;;;;;;;3.50;2.00;;;;;;;;5061121;28;45593;-77
2021/07/10 07:25:52;;;;;;;;;4.67;3.00;;;;;;;;5063150;28;45212;-77
2021/07/10 07:28:18;;;;;;;;;3.00;3.00;;;;;;;;5058653;28;45630;-77
2021/07/10 07:30:43;;;;;;;;;4.00;4.00;;;;;;;;5060827;28;45533;-77
2021/07/10 07:33:08;;;;;;;;;2.00;2.00;;;;;;;;5062533;28;45457;-77
2021/07/10 07:35:33;;;;;;;;;3.33;2.00;;;;;;;;5064321;28;45449;-77
2021/07/10 07:37:59;;;;;;;;;2.33;2.33;;;;;;;;5054982;28;46281;-77
2021/07/10 07:40:24;;;;;;;;;2.00;2.00;;;;;;;;5063031;28;45450;-77
2021/07/10 07:42:50;;;;;;;;;3.67;2.67;;;;;;;;5074568;27;45488;-77
2021/07/10 07:45:17;;;;;;;;;2.50;2.50;;;;;;;;5060449;27;45351;-78
2021/07/10 07:47:42;;;;;;;;;3.50;3.00;;;;;;;;5066132;28;45400;-77
2021/07/10 07:50:09;;;;;;;;;2.25;2.00;;;;;;;;5051898;28;46451;-79
2021/07/10 07:52:34;;;;;;;;;3.00;3.00;;;;;;;;5055942;28;45564;-78
2021/07/10 07:55:00;;;;;;;;;3.00;3.00;;;;;;;;5058453;28;45519;-77
2021/07/10 07:57:25;;;;;;;;;2.75;2.75;;;;;;;;5056637;28;46417;-77
2021/07/10 07:59:50;;;;;;;;;5.00;3.00;;;;;;;;5064920;28;45338;-77
2021/07/10 08:02:15;;;;;;;;;3.67;3.00;;;;;;;;5055206;28;45555;-79
2021/07/10 08:04:41;;;;;;;;;2.67;2.67;;;;;;;;5056460;28;45501;-77
2021/07/10 08:07:06;;;;;;;;;3.00;2.00;;;;;;;;5059861;28;45744;-77
2021/07/10 08:09:32;;;;;;;;;1.75;1.75;;;;;;;;5058978;27;45505;-77
2021/07/10 08:11:57;;;;;;;;;4.00;3.00;;;;;;;;5063586;27;45474;-77
2021/07/10 08:14:25;;;;;;;;;1.50;1.50;;;;;;;;5055602;28;45498;-77
2021/07/10 08:16:51;;;;;;;;;2.00;2.00;;;;;;;;5065130;28;46637;-77
2021/07/10 08:19:18;;;;;;;;;3.00;2.00;;;;;;;;5060352;28;45523;-77
2021/07/10 08:21:43;;;;;;;;;3.75;3.25;;;;;;;;5059511;28;45603;-77
2021/07/10 08:24:08;;;;;;;;;5.33;2.67;;;;;;;;5059437;28;45443;-77
2021/07/10 08:26:34;;;;;;;;;2.67;2.67;;;;;;;;5063767;28;46381;-77
2021/07/10 08:29:00;;;;;;;;;3.00;3.00;;;;;;;;5063971;28;45362;-78
2021/07/10 08:31:26;;;;;;;;;1.75;1.75;;;;;;;;5062291;28;45390;-78
2021/07/10 08:33:51;;;;;;;;;2.75;2.75;;;;;;;;5059828;27;45270;-77
2021/07/10 08:36:16;;;;;;;;;6.25;2.75;;;;;;;;5058558;27;46069;-76
2021/07/10 08:38:42;;;;;;;;;2.25;2.25;;;;;;;;5062714;28;45427;-79
2021/07/10 08:41:08;;;;;;;;;2.00;2.00;;;;;;;;5063064;28;45544;-78
2021/07/10 08:43:33;;;;;;;;;3.75;3.75;;;;;;;;5060839;28;45502;-77
2021/07/10 08:46:01;;;;;;;;;3.25;3.25;;;;;;;;5051584;28;45403;-75
2021/07/10 08:48:27;;;;;;;;;3.00;3.00;;;;;;;;5049462;28;45446;-79
2021/07/10 08:50:52;;;;;;;;;2.00;2.00;;;;;;;;5042199;28;45663;-76
2021/07/10 08:53:18;;;;;;;;;1.75;1.75;;;;;;;;5051930;28;45491;-78
2021/07/10 08:55:43;;;;;;;;;2.25;2.25;;;;;;;;5055957;28;45557;-80
2021/07/10 08:58:08;;;;;;;;;4.00;3.00;;;;;;;;5043791;28;45577;-80
2021/07/10 09:00:38;;;;;;;;;3.33;3.00;;;;;;;;5050967;28;45574;-80
2021/07/10 09:03:04;;;;;;;;;2.00;2.00;;;;;;;;5052757;28;46483;-80
2021/07/10 09:05:30;;;;;;;;;2.25;2.25;;;;;;;;5051824;28;46913;-82
2021/07/10 09:08:21;;;;;;;;;4.00;3.25;;;;;;;;5052069;28;45494;-79
2021/07/10 09:10:52;;;;;;;;;2.50;2.25;;;;;;;;5052270;28;45445;-79
2021/07/10 09:13:17;;;;;;;;;5.00;3.25;;;;;;;;5053818;28;45497;-78
2021/07/10 09:15:44;;;;;;;;;4.50;3.00;;;;;;;;5051343;28;46195;-77
2021/07/10 09:18:11;;;;;;;;;2.00;2.00;;;;;;;;5051682;28;45855;-86
2021/07/10 09:20:38;;;;;;;;;2.00;2.00;;;;;;;;5050370;28;45531;-81
2021/07/10 09:23:22;;;;;;;;;3.75;1.00;;;;;;;;5052841;28;45522;-83
2021/07/10 09:25:47;;;;;;;;;2.00;2.00;;;;;;;;5060562;28;45478;-80
2021/07/10 09:28:13;;;;;;;;;1.33;1.33;;;;;;;;5074509;27;45734;-80
2021/07/10 09:30:40;;;;;;;;;3.75;2.50;;;;;;;;5053299;28;45463;-80
2021/07/10 09:33:14;;;;;;;;;5.00;2.00;;;;;;;;5053055;28;45644;-81
2021/07/10 09:35:52;;;;;;;;;1.50;1.25;;;;;;;;5049317;28;45441;-79
2021/07/10 09:38:18;;;;;;;;;2.50;2.50;;;;;;;;5047534;28;45756;-81
2021/07/10 09:40:44;;;;;;;;;1.75;1.75;;;;;;;;5053903;28;45674;-77
2021/07/10 09:43:21;;;;;;;;;1.00;1.00;;;;;;;;5056077;28;45368;-78
2021/07/10 09:45:46;;;;;;;;;3.00;1.25;;;;;;;;5049139;28;46263;-81
2021/07/10 09:48:11;;;;;;;;;1.67;1.67;;;;;;;;5074896;27;46667;-80
2021/07/10 09:50:36;;;;;;;;;1.25;1.00;;;;;;;;5049249;28;58050;-79
2021/07/10 09:53:02;;;;;;;;;3.67;1.33;;;;;;;;5049219;28;45578;-78
2021/07/10 09:55:28;;;;;;;;;2.00;2.00;;;;;;;;5050238;28;45849;-81
2021/07/10 09:57:57;;;;;;;;;1.00;1.00;;;;;;;;5048221;28;45907;-80
2021/07/10 10:00:22;;;;;;;;;2.00;2.00;;;;;;;;5048409;28;45703;-79
2021/07/10 10:02:48;;;;;;;;;1.75;1.75;;;;;;;;5047117;28;45529;-79
2021/07/10 10:05:14;;;;;;;;;1.00;1.00;;;;;;;;5049014;28;45635;-80
2021/07/10 10:07:42;;;;;;;;;1.75;1.75;;;;;;;;5053161;28;45406;-79
2021/07/10 10:10:07;;;;;;;;;2.00;2.00;;;;;;;;5052580;28;45332;-81
2021/07/10 10:12:33;;;;;;;;;1.75;1.75;;;;;;;;5053191;28;45564;-81
2021/07/10 10:14:58;;;;;;;;;3.75;2.00;;;;;;;;5054650;28;45833;-79
2021/07/10 10:17:25;;;;;;;;;3.00;2.00;;;;;;;;5055845;28;45516;-81
2021/07/10 10:19:50;;;;;;;;;1.50;1.50;;;;;;;;5052467;28;45418;-82
2021/07/10 10:22:16;;;;;;;;;2.00;0.75;;;;;;;;5058484;28;45484;-81
2021/07/10 10:24:43;;;;;;;;;1.00;1.00;;;;;;;;5050251;28;45487;-81
2021/07/10 10:27:09;;;;;;;;;1.50;1.50;;;;;;;;5045775;28;45723;-81
2021/07/10 10:29:35;;;;;;;;;3.75;1.00;;;;;;;;5049234;28;45515;-79
2021/07/10 10:32:01;;;;;;;;;5.00;1.75;;;;;;;;5064401;28;45547;-84
2021/07/10 10:34:26;;;;;;;;;2.50;1.25;;;;;;;;5054133;28;46073;-81
2021/07/10 10:36:52;;;;;;;;;0.33;0.33;;;;;;;;5048103;28;45688;-80
2021/07/10 10:39:19;;;;;;;;;3.00;1.00;;;;;;;;5051684;28;45620;-81
2021/07/10 10:41:46;;;;;;;;;2.00;1.00;;;;;;;;5046379;28;45497;-80
2021/07/10 10:44:12;;;;;;;;;2.00;2.00;;;;;;;;5057898;28;48478;-79
2021/07/10 10:46:45;;;;;;;;;3.00;1.00;;;;;;;;5040376;28;45504;-81
2021/07/10 10:49:30;;;;;;;;;1.00;1.00;;;;;;;;5049245;28;45570;-81
2021/07/10 10:52:15;;;;;;;;;1.00;1.00;;;;;;;;5047465;28;45652;-81
2021/07/10 10:54:44;;;;;;;;;1.00;1.00;;;;;;;;5046987;28;45539;-80
2021/07/10 10:57:10;;;;;;;;;2.25;2.25;;;;;;;;5049317;28;47021;-82
2021/07/10 10:59:39;;;;;;;;;2.50;2.00;;;;;;;;5049580;28;45570;-81
2021/07/10 11:02:23;;;;;;;;;3.00;3.00;;;;;;;;5047820;28;45447;-79
2021/07/10 11:04:55;;;;;;;;;2.50;2.50;;;;;;;;5053813;28;46227;-81
2021/07/10 11:07:29;;;;;;;;;4.50;2.50;;;;;;;;5053811;28;45348;-80
2021/07/10 11:10:06;;;;;;;;;2.00;2.00;;;;;;;;5054616;28;45648;-81
2021/07/10 11:12:53;;;;;;;;;2.50;2.50;;;;;;;;5053624;28;45461;-81
2021/07/10 11:15:24;;;;;;;;;2.25;2.25;;;;;;;;5053898;28;46526;-81
2021/07/10 11:17:49;;;;;;;;;2.00;2.00;;;;;;;;5050633;28;45835;-80
2021/07/10 11:20:35;;;;;;;;;2.00;2.00;;;;;;;;5061489;28;45474;-79
2021/07/10 11:23:01;;;;;;;;;2.00;2.00;;;;;;;;5064189;28;45379;-80
2021/07/10 11:25:45;;;;;;;;;2.25;2.00;;;;;;;;5075333;27;45477;-80
2021/07/10 11:28:14;;;;;;;;;3.50;2.00;;;;;;;;5047315;28;45716;-80
2021/07/10 11:30:51;;;;;;;;;2.00;2.00;;;;;;;;5057369;28;46037;-80
2021/07/10 11:33:37;;;;;;;;;4.00;2.00;;;;;;;;5054975;28;45413;-80
2021/07/10 11:36:02;;;;;;;;;3.50;2.00;;;;;;;;5055580;28;47266;-80
2021/07/10 11:38:38;;;;;;;;;4.00;3.00;;;;;;;;5057099;28;45762;-80
2021/07/10 11:41:03;;;;;;;;;3.75;3.00;;;;;;;;5067654;28;45543;-81
2021/07/10 11:43:36;;;;;;;;;2.50;2.50;;;;;;;;5056378;28;45460;-80
2021/07/10 11:46:01;;;;;;;;;4.00;4.00;;;;;;;;5056533;28;47568;-79
2021/07/10 11:48:27;;;;;;;;;3.00;3.00;;;;;;;;5056917;28;45434;-80
2021/07/10 11:50:57;;;;;;;;;3.25;3.25;;;;;;;;5040147;28;45545;-78
2021/07/10 11:53:24;;;;;;;;;4.25;4.00;;;;;;;;5053081;28;45344;-80
2021/07/10 11:55:50;;;;;;;;;3.25;3.25;;;;;;;;5048562;28;46367;-78
2021/07/10 11:58:16;;;;;;;;;5.50;3.00;;;;;;;;5056312;28;45364;-78
2021/07/10 12:00:41;;;;;;;;;3.75;3.00;;;;;;;;5055328;28;45546;-79
2021/07/10 12:03:23;;;;;;;;;5.25;2.75;;;;;;;;5053579;28;45595;-80
2021/07/10 12:05:49;;;;;;;;;3.00;3.00;;;;;;;;5052237;28;47299;-78
2021/07/10 12:08:15;;;;;;;;;4.25;3.00;;;;;;;;5054928;28;45547;-80
2021/07/10 12:10:42;;;;;;;;;3.00;3.00;;;;;;;;5053315;28;46928;-80
2021/07/10 12:13:10;;;;;;;;;7.00;3.00;;;;;;;;5049023;28;45441;-80
2021/07/10 12:15:40;;;;;;;;;5.00;3.00;;;;;;;;5046459;28;46192;-79
2021/07/10 12:18:07;;;;;;;;;4.75;3.00;;;;;;;;5053560;28;45731;-79
2021/07/10 12:20:33;;;;;;;;;3.00;3.00;;;;;;;;5050711;28;45518;-79
2021/07/10 12:23:00;;;;;;;;;4.25;4.25;;;;;;;;5052804;28;45449;-80
2021/07/10 12:25:27;;;;;;;;;5.00;4.00;;;;;;;;5053757;28;46157;-79
2021/07/10 12:27:53;;;;;;;;;4.50;2.25;;;;;;;;5053031;28;48585;-79
2021/07/10 12:30:33;;;;;;;;;3.75;3.00;;;;;;;;5042964;28;45536;-79
2021/07/10 12:32:58;;;;;;;;;3.00;3.00;;;;;;;;5045785;28;45489;-79
2021/07/10 12:35:23;;;;;;;;;2.00;2.00;;;;;;;;5050571;28;48685;-78
2021/07/10 12:37:49;;;;;;;;;3.00;3.00;;;;;;;;5050569;28;45382;-79
2021/07/10 12:40:14;;;;;;;;;2.00;2.00;;;;;;;;5051914;28;45547;-79
2021/07/10 12:42:39;;;;;;;;;2.33;2.33;;;;;;;;5042683;28;46774;-79
2021/07/10 12:45:08;;;;;;;;;4.00;2.00;;;;;;;;5045820;28;45525;-78
2021/07/10 12:47:33;;;;;;;;;1.00;1.00;;;;;;;;5047343;28;45773;-79
2021/07/10 12:49:59;;;;;;;;;2.00;2.00;;;;;;;;5048915;28;46464;-79
2021/07/10 12:52:28;;;;;;;;;2.50;2.50;;;;;;;;5050220;28;45561;-78
2021/07/10 12:55:05;;;;;;;;;1.25;1.25;;;;;;;;5043622;28;45811;-78
2021/07/10 12:57:34;;;;;;;;;2.50;2.00;;;;;;;;5043117;28;45437;-79
2021/07/10 13:00:01;;;;;;;;;1.75;1.75;;;;;;;;5043918;28;45553;-78
2021/07/10 13:02:28;;;;;;;;;1.00;1.00;;;;;;;;5045701;28;45746;-79
2021/07/10 13:04:54;;;;;;;;;2.00;2.00;;;;;;;;5051343;28;46147;-79
2021/07/10 13:07:24;;;;;;;;;3.75;1.00;;;;;;;;5050787;28;45582;-79
2021/07/10 13:09:49;;;;;;;;;1.00;1.00;;;;;;;;5048291;28;45520;-79
2021/07/10 13:12:14;;;;;;;;;2.00;2.00;;;;;;;;5039577;28;45577;-79
2021/07/10 13:14:39;;;;;;;;;2.00;2.00;;;;;;;;5043181;28;47551;-79
2021/07/10 13:17:12;;;;;;;;;3.00;2.00;;;;;;;;5043886;28;45478;-79
2021/07/10 13:19:37;;;;;;;;;2.00;2.00;;;;;;;;5037270;28;45473;-79
2021/07/10 13:22:02;;;;;;;;;2.00;2.00;;;;;;;;5041964;28;45409;-79
2021/07/10 13:24:27;;;;;;;;;3.67;2.67;;;;;;;;5064009;28;46036;-77
2021/07/10 13:26:54;;;;;;;;;3.00;3.00;;;;;;;;5050658;28;45661;-79
2021/07/10 13:29:21;;;;;;;;;1.25;1.25;;;;;;;;5049548;28;46502;-79
2021/07/10 13:31:49;;;;;;;;;1.50;1.50;;;;;;;;5049552;28;45501;-79
2021/07/10 13:34:16;;;;;;;;;2.25;1.75;;;;;;;;5052274;28;45382;-80
2021/07/10 13:36:42;;;;;;;;;2.00;2.00;;;;;;;;5044324;28;45422;-79
2021/07/10 13:39:12;;;;;;;;;2.75;2.00;;;;;;;;5041929;28;49592;-78
2021/07/10 13:41:50;;;;;;;;;1.50;1.50;;;;;;;;5041716;28;45624;-78
2021/07/10 13:44:17;;;;;;;;;2.50;2.00;;;;;;;;5048662;28;46101;-79
2021/07/10 13:46:42;;;;;;;;;2.00;2.00;;;;;;;;5048976;28;45636;-81
2021/07/10 13:49:25;;;;;;;;;1.00;1.00;;;;;;;;5044420;28;45540;-80
2021/07/10 13:51:55;;;;;;;;;2.75;2.75;;;;;;;;5044604;28;45429;-80
2021/07/10 13:54:24;;;;;;;;;2.00;2.00;;;;;;;;5041934;28;45559;-80
2021/07/10 13:57:07;;;;;;;;;2.00;2.00;;;;;;;;5040241;28;45678;-80
2021/07/10 13:59:32;;;;;;;;;3.00;2.00;;;;;;;;5050366;28;45439;-80
2021/07/10 14:01:58;;;;;;;;;2.00;2.00;;;;;;;;5055848;28;45382;-80
2021/07/10 14:04:23;;;;;;;;;2.00;2.00;;;;;;;;5052280;28;46630;-82
2021/07/10 14:06:48;;;;;;;;;3.00;2.00;;;;;;;;5043705;28;45839;-79
2021/07/10 14:09:14;;;;;;;;;2.67;2.67;;;;;;;;5049916;28;45450;-80
2021/07/10 14:11:40;;;;;;;;;3.00;1.00;;;;;;;;5046922;28;46756;-83
2021/07/10 14:14:05;;;;;;;;;2.25;2.25;;;;;;;;5037201;28;45463;-80
2021/07/10 14:16:31;;;;;;;;;2.00;2.00;;;;;;;;5037494;28;45506;-79
2021/07/10 14:18:56;;;;;;;;;2.00;2.00;;;;;;;;5038740;28;45527;-81
2021/07/10 14:21:21;;;;;;;;;2.00;2.00;;;;;;;;5035614;28;45526;-81
2021/07/10 14:23:47;;;;;;;;;2.00;2.00;;;;;;;;5033998;28;47303;-78
2021/07/10 14:26:12;;;;;;;;;2.00;2.00;;;;;;;;5039012;28;45495;-79
2021/07/10 14:28:37;;;;;;;;;2.67;2.00;;;;;;;;5041308;28;45563;-79
2021/07/10 14:31:02;;;;;;;;;2.00;2.00;;;;;;;;5041873;28;45466;-80
2021/07/10 14:33:28;;;;;;;;;2.00;2.00;;;;;;;;5038772;28;46265;-80
2021/07/10 14:35:53;;;;;;;;;3.67;1.67;;;;;;;;5048557;28;46291;-80
2021/07/10 14:38:18;;;;;;;;;1.50;1.50;;;;;;;;5036144;28;45842;-81